Roanoke, VA (24037)

12:32 AM EST on November 24, 2014 (GMT -0500)
Fallon Park ES | Change Station
CLOSE
Current Station
Personal Weather Station
Location: Roanoke, VA
Elevation: 932 ft
Nearby Weather Stations

Elev 932 ft 37.28 °N, 79.91 °W | Updated 1 minute ago

Overcast
Overcast
47.0 °F
Feels Like 47 °F
N
0.0
Wind Variable Wind from East
Gusts 16.0 mph

Today
High -- | Low -- °F
--% Chance of Precip.
Yesterday
High -- | Low -- °F
Precip. -- in
7:08 AM 5:04 PM
Waxing Crescent, 4% visible
Pressure 29.73 in
Visibility 7.0 miles
Clouds Mostly Cloudy 300 ft
Overcast 1200 ft
Windchill 47 °F
Dew Point 46 °F
Humidity 98%
Rainfall 0.00 in
Snow Depth Not available.
UV 0 out of 12
Pollen .10 out of 12
Air Quality Not available.
Flu Activity Not available.
METAR KROA 240454Z 32004KT 7SM BKN003 OVC012 08/08 A2973 RMK AO2 RAE30B32E51 SLP067 P0002 T00830078 400891022

More Conditions Fewer Conditions

Pressure 29.73 in
Visibility 7.0 miles
Clouds Mostly Cloudy 300 ft
Overcast 1200 ft
Windchill 47 °F
Dew Point 46 °F
Humidity 98%
Rainfall 0.00 in
Snow Depth Not available.
UV 0 out of 12
Pollen .10 out of 12
Air Quality Not available.
Flu Activity Not available.
METAR KROA 240454Z 32004KT 7SM BKN003 OVC012 08/08 A2973 RMK AO2 RAE30B32E51 SLP067 P0002 T00830078 400891022

More Conditions Fewer Conditions

10-Day Weather Forecast

Almanac

Astronomy

Nov. 24, 2014 Rise Set
Actual Time
Civil Twilight
Nautical Twilight
Astronomical Twilight
Moon
Length of Visible Light
Length of Day
Tomorrow will be .
, % of the Moon is Illuminated

Today's Extremes

State Highs State Lows

Community

WunderPhotos

Upload Photos

1,773,279 photos uploaded!

WunderBlogs® & News

Nearby

Air Quality

  Air Quality AQ Index Pollutant
Not available.

Snow Depth

Station Depth Elevation

Earthquake Activity

City Distance Mag. Time & Date
Minimum magnitude displayed is 2.5.

Coastal Water Temperatures

Place Temperature

Nearby Weather Stations